東京/横田 の空港の天気 - METARとTAF

横田飛行場 ( RJTY / OKO ) - 東京都福生市
飛行場実況気象(Metar)
観測時間08/01 16:56 JST (08/01 07:56 UTC)
風向・風速南 6m/s 瞬間風速9m/s
視程10km以上
天気現象
なし
気温30℃
湿度67%
気圧1003.2hPa
METARRJTY 010756Z AUTO 18011G17KT 10SM CLR 30/23 A2964 RMK AO2 SLP032 T03000232 FZRANO $
過去の天気等 Google飛行場航空写真 Wunderground天気予報

過去48時間のMETAR

飛行場予報(TAF)
発表時間: 8/01 14:00 JST (8/01 05:00 UTC)
予報対象時間: 1日14時 JST ~ 2日20時 JST
風向・風速南 6m/s
視程10km以上
全天の4割程度の雲 雲底高度 1220m
1日12時 JST ~ 1日17時 JST に一時的に
風向・風速南 6m/s 瞬間風速 9m/s
1日17時 JST ~ 1日18時 JST に徐々に
風向・風速南 3m/s
視程10km以上
少しの雲 雲底高度 1220m
2日9時 JST ~ 2日10時 JST に徐々に
風向・風速南東 5m/s
視程10km以上
全天の4割程度の雲 雲底高度 610m
全天の8割程度の雲 雲底高度 1220m
2日13時 JST ~ 2日18時 JST に一時的に
視程8000m
天気現象弱い雨
全天の8割程度の雲 雲底高度 460m
全天を覆う雲 雲底高度 910m
TAF RJTY 010500Z 0105/0211 17012KT 9999 SCT040 QNH2964INS
TEMPO 0103/0108 17012G18KT
BECMG 0108/0109 17006KT 9999 FEW040 QNH2966INS
BECMG 0200/0201 14009KT 9999 SCT020 BKN040 QNH2974INS
TEMPO 0204/0209 8000 -RA BKN015 OVC030 TX33/0105Z TN22/0121Z
日本の空港のMETAR・TAFへのリンク

RJTT 東京国際空港
RJAA 新東京国際空港
RJBB 関西国際空港
RJOO 大阪空港
RJGG 中部国際空港
RJCC 新千歳空港
RJFF 福岡空港
ROAH 那覇空港


RJEC 旭川空港
RJCH 函館空港
RJCK 釧路空港
RJCM 女満別空港
RJCB 帯広空港
RJSA 青森空港
RJSS 仙台空港
RJSK 秋田空港
RJSF 福島空港
RJAH 茨城空港
RJSN 新潟空港
RJNT 富山空港
RJNK 小松飛行場
RJNS 静岡空港
RJOH 美保飛行場
RJOC 出雲空港
RJOB 岡山空港
RJOA 広島空港
RJOI 岩国飛行場
RJOT 高松空港
RJOM 松山空港
RJOK 高知空港
RJFR 北九州空港
RJFT 熊本空港
RJFU 長崎空港
RJFS 佐賀空港
RJFO 大分空港
RJFM 宮崎空港
RJFK 鹿児島空港
ROIG 石垣島空港
RJTY 横田飛行場
ROTM 普天間飛行場
RODN 嘉手納飛行場